sensor_id;sensor_type;location;lat;lon;timestamp;temperature;humidity
15900;DHT22;8048;50.644;6.184;2023-04-01T00:00:52;7.70;99.90
15900;DHT22;8048;50.644;6.184;2023-04-01T00:03:18;7.70;99.90
15900;DHT22;8048;50.644;6.184;2023-04-01T00:05:44;7.70;99.90
15900;DHT22;8048;50.644;6.184;2023-04-01T00:08:11;7.70;99.90
15900;DHT22;8048;50.644;6.184;2023-04-01T00:10:36;7.80;99.90
15900;DHT22;8048;50.644;6.184;2023-04-01T00:13:02;7.70;99.90
15900;DHT22;8048;50.644;6.184;2023-04-01T00:15:28;7.70;99.90
15900;DHT22;8048;50.644;6.184;2023-04-01T00:17:53;7.70;99.90
15900;DHT22;8048;50.644;6.184;2023-04-01T00:20:19;7.70;99.90
15900;DHT22;8048;50.644;6.184;2023-04-01T00:22:45;7.70;99.90
15900;DHT22;8048;50.644;6.184;2023-04-01T00:25:11;7.70;99.90
15900;DHT22;8048;50.644;6.184;2023-04-01T00:27:37;7.70;99.90
15900;DHT22;8048;50.644;6.184;2023-04-01T00:30:03;7.80;99.90
15900;DHT22;8048;50.644;6.184;2023-04-01T00:32:29;7.70;99.90
15900;DHT22;8048;50.644;6.184;2023-04-01T00:34:55;7.70;99.90
15900;DHT22;8048;50.644;6.184;2023-04-01T00:37:21;7.70;99.90
15900;DHT22;8048;50.644;6.184;2023-04-01T00:39:48;7.70;99.90
15900;DHT22;8048;50.644;6.184;2023-04-01T00:42:13;7.70;99.90
15900;DHT22;8048;50.644;6.184;2023-04-01T00:44:39;7.70;99.90
15900;DHT22;8048;50.644;6.184;2023-04-01T00:47:05;7.70;99.90
15900;DHT22;8048;50.644;6.184;2023-04-01T00:49:34;7.70;99.90
15900;DHT22;8048;50.644;6.184;2023-04-01T00:52:03;7.70;99.90
15900;DHT22;8048;50.644;6.184;2023-04-01T00:54:30;7.70;99.90
15900;DHT22;8048;50.644;6.184;2023-04-01T00:57:04;7.70;99.90
15900;DHT22;8048;50.644;6.184;2023-04-01T00:59:43;7.70;99.90
15900;DHT22;8048;50.644;6.184;2023-04-01T01:02:11;7.70;99.90
15900;DHT22;8048;50.644;6.184;2023-04-01T01:04:37;7.70;99.90
15900;DHT22;8048;50.644;6.184;2023-04-01T01:09:41;7.70;99.90
15900;DHT22;8048;50.644;6.184;2023-04-01T01:12:14;7.70;99.90
15900;DHT22;8048;50.644;6.184;2023-04-01T01:15:20;7.70;99.90
15900;DHT22;8048;50.644;6.184;2023-04-01T01:18:01;7.70;99.90
15900;DHT22;8048;50.644;6.184;2023-04-01T01:28:36;7.70;99.90
15900;DHT22;8048;50.644;6.184;2023-04-01T01:31:23;7.70;99.90
15900;DHT22;8048;50.644;6.184;2023-04-01T01:34:51;7.60;99.90
15900;DHT22;8048;50.644;6.184;2023-04-01T01:36:56;7.60;99.90
15900;DHT22;8048;50.644;6.184;2023-04-01T01:39:26;7.60;99.90
15900;DHT22;8048;50.644;6.184;2023-04-01T01:41:56;7.60;99.90
15900;DHT22;8048;50.644;6.184;2023-04-01T01:44:23;7.60;99.90
15900;DHT22;8048;50.644;6.184;2023-04-01T01:46:50;7.60;99.90
15900;DHT22;8048;50.644;6.184;2023-04-01T01:49:17;7.60;99.90
15900;DHT22;8048;50.644;6.184;2023-04-01T01:51:43;7.60;99.90
15900;DHT22;8048;50.644;6.184;2023-04-01T01:54:13;7.60;99.90
15900;DHT22;8048;50.644;6.184;2023-04-01T01:56:39;7.60;99.90
15900;DHT22;8048;50.644;6.184;2023-04-01T01:59:08;7.60;99.90
15900;DHT22;8048;50.644;6.184;2023-04-01T02:01:39;7.60;99.90
15900;DHT22;8048;50.644;6.184;2023-04-01T02:04:07;7.60;99.90
15900;DHT22;8048;50.644;6.184;2023-04-01T02:06:36;7.60;99.90
15900;DHT22;8048;50.644;6.184;2023-04-01T02:09:05;7.60;99.90
15900;DHT22;8048;50.644;6.184;2023-04-01T02:11:43;7.60;99.90
15900;DHT22;8048;50.644;6.184;2023-04-01T02:14:15;7.60;99.90
15900;DHT22;8048;50.644;6.184;2023-04-01T02:17:03;7.60;99.90
15900;DHT22;8048;50.644;6.184;2023-04-01T02:19:40;7.60;99.90
15900;DHT22;8048;50.644;6.184;2023-04-01T02:22:12;7.50;99.90
15900;DHT22;8048;50.644;6.184;2023-04-01T02:24:39;7.50;99.90
15900;DHT22;8048;50.644;6.184;2023-04-01T02:27:06;7.50;99.90
15900;DHT22;8048;50.644;6.184;2023-04-01T02:29:32;7.50;99.90
15900;DHT22;8048;50.644;6.184;2023-04-01T02:31:58;7.50;99.90
15900;DHT22;8048;50.644;6.184;2023-04-01T02:34:24;7.50;99.90
15900;DHT22;8048;50.644;6.184;2023-04-01T02:36:51;7.50;99.90
15900;DHT22;8048;50.644;6.184;2023-04-01T02:39:17;7.50;99.90
15900;DHT22;8048;50.644;6.184;2023-04-01T02:41:45;7.60;99.90
15900;DHT22;8048;50.644;6.184;2023-04-01T02:44:11;7.50;99.90
15900;DHT22;8048;50.644;6.184;2023-04-01T02:46:37;7.50;99.90
15900;DHT22;8048;50.644;6.184;2023-04-01T02:49:03;7.50;99.90
15900;DHT22;8048;50.644;6.184;2023-04-01T02:51:29;7.60;99.90
15900;DHT22;8048;50.644;6.184;2023-04-01T02:53:55;7.50;99.90
15900;DHT22;8048;50.644;6.184;2023-04-01T02:56:20;7.50;99.90
15900;DHT22;8048;50.644;6.184;2023-04-01T02:58:46;7.50;99.90
15900;DHT22;8048;50.644;6.184;2023-04-01T03:01:12;7.50;99.90
15900;DHT22;8048;50.644;6.184;2023-04-01T03:03:38;7.50;99.90
15900;DHT22;8048;50.644;6.184;2023-04-01T03:06:12;7.50;99.90
15900;DHT22;8048;50.644;6.184;2023-04-01T03:08:38;7.50;99.90
15900;DHT22;8048;50.644;6.184;2023-04-01T03:11:04;7.50;99.90
15900;DHT22;8048;50.644;6.184;2023-04-01T03:13:30;7.50;99.90
15900;DHT22;8048;50.644;6.184;2023-04-01T03:15:56;7.50;99.90
15900;DHT22;8048;50.644;6.184;2023-04-01T03:18:21;7.50;99.90
15900;DHT22;8048;50.644;6.184;2023-04-01T03:20:47;7.50;99.90
15900;DHT22;8048;50.644;6.184;2023-04-01T03:23:12;7.50;99.90
15900;DHT22;8048;50.644;6.184;2023-04-01T03:25:38;7.50;99.90
15900;DHT22;8048;50.644;6.184;2023-04-01T03:28:04;7.50;99.90
15900;DHT22;8048;50.644;6.184;2023-04-01T03:30:30;7.50;99.90
15900;DHT22;8048;50.644;6.184;2023-04-01T03:32:57;7.50;99.90
15900;DHT22;8048;50.644;6.184;2023-04-01T03:35:22;7.40;99.90
15900;DHT22;8048;50.644;6.184;2023-04-01T03:37:50;7.40;99.90
15900;DHT22;8048;50.644;6.184;2023-04-01T03:40:15;7.40;99.90
15900;DHT22;8048;50.644;6.184;2023-04-01T03:42:41;7.40;99.90
15900;DHT22;8048;50.644;6.184;2023-04-01T03:45:07;7.50;99.90
15900;DHT22;8048;50.644;6.184;2023-04-01T03:47:32;7.40;99.90
15900;DHT22;8048;50.644;6.184;2023-04-01T03:49:58;7.40;99.90
15900;DHT22;8048;50.644;6.184;2023-04-01T03:52:23;7.50;99.90
15900;DHT22;8048;50.644;6.184;2023-04-01T03:54:49;7.50;99.90
15900;DHT22;8048;50.644;6.184;2023-04-01T03:57:14;7.50;99.90
15900;DHT22;8048;50.644;6.184;2023-04-01T03:59:40;7.40;99.90
15900;DHT22;8048;50.644;6.184;2023-04-01T04:02:05;7.40;99.90
15900;DHT22;8048;50.644;6.184;2023-04-01T04:04:31;7.50;99.90
15900;DHT22;8048;50.644;6.184;2023-04-01T04:06:57;7.50;99.90
15900;DHT22;8048;50.644;6.184;2023-04-01T04:09:23;7.50;99.90
15900;DHT22;8048;50.644;6.184;2023-04-01T04:11:49;7.50;99.90
15900;DHT22;8048;50.644;6.184;2023-04-01T04:14:15;7.50;99.90
15900;DHT22;8048;50.644;6.184;2023-04-01T04:16:40;7.60;99.90
15900;DHT22;8048;50.644;6.184;2023-04-01T04:19:06;7.60;99.90
15900;DHT22;8048;50.644;6.184;2023-04-01T04:21:31;7.60;99.90
15900;DHT22;8048;50.644;6.184;2023-04-01T04:23:59;7.60;99.90
15900;DHT22;8048;50.644;6.184;2023-04-01T04:26:26;7.60;99.90
15900;DHT22;8048;50.644;6.184;2023-04-01T04:28:51;7.50;99.90
15900;DHT22;8048;50.644;6.184;2023-04-01T04:31:21;7.60;99.90
15900;DHT22;8048;50.644;6.184;2023-04-01T04:33:47;7.60;99.90
15900;DHT22;8048;50.644;6.184;2023-04-01T04:36:14;7.60;99.90
15900;DHT22;8048;50.644;6.184;2023-04-01T04:38:39;7.60;99.90
15900;DHT22;8048;50.644;6.184;2023-04-01T04:41:12;7.60;99.90
15900;DHT22;8048;50.644;6.184;2023-04-01T04:43:39;7.60;99.90
15900;DHT22;8048;50.644;6.184;2023-04-01T04:46:07;7.60;99.90
15900;DHT22;8048;50.644;6.184;2023-04-01T04:48:32;7.60;99.90
15900;DHT22;8048;50.644;6.184;2023-04-01T04:50:58;7.60;99.90
15900;DHT22;8048;50.644;6.184;2023-04-01T04:53:23;7.60;99.90
15900;DHT22;8048;50.644;6.184;2023-04-01T04:55:50;7.60;99.90
15900;DHT22;8048;50.644;6.184;2023-04-01T04:58:16;7.60;99.90
15900;DHT22;8048;50.644;6.184;2023-04-01T05:00:42;7.60;99.90
15900;DHT22;8048;50.644;6.184;2023-04-01T05:03:09;7.60;99.90
15900;DHT22;8048;50.644;6.184;2023-04-01T05:05:35;7.60;99.90
15900;DHT22;8048;50.644;6.184;2023-04-01T05:08:01;7.60;99.90
15900;DHT22;8048;50.644;6.184;2023-04-01T05:10:26;7.60;99.90
15900;DHT22;8048;50.644;6.184;2023-04-01T05:12:52;7.60;99.90
15900;DHT22;8048;50.644;6.184;2023-04-01T05:15:17;7.60;99.90
15900;DHT22;8048;50.644;6.184;2023-04-01T05:17:43;7.70;99.90
15900;DHT22;8048;50.644;6.184;2023-04-01T05:20:09;7.60;99.90
15900;DHT22;8048;50.644;6.184;2023-04-01T05:22:35;7.60;99.90
15900;DHT22;8048;50.644;6.184;2023-04-01T05:25:00;7.60;99.90
15900;DHT22;8048;50.644;6.184;2023-04-01T05:27:26;7.60;99.90
15900;DHT22;8048;50.644;6.184;2023-04-01T05:29:51;7.60;99.90
15900;DHT22;8048;50.644;6.184;2023-04-01T05:32:17;7.60;99.90
15900;DHT22;8048;50.644;6.184;2023-04-01T05:34:42;7.60;99.90
15900;DHT22;8048;50.644;6.184;2023-04-01T05:37:08;7.60;99.90
15900;DHT22;8048;50.644;6.184;2023-04-01T05:39:40;7.60;99.90
15900;DHT22;8048;50.644;6.184;2023-04-01T05:42:06;7.60;99.90
15900;DHT22;8048;50.644;6.184;2023-04-01T05:44:32;7.60;99.90
15900;DHT22;8048;50.644;6.184;2023-04-01T05:46:58;7.70;99.90
15900;DHT22;8048;50.644;6.184;2023-04-01T05:49:23;7.70;99.90
15900;DHT22;8048;50.644;6.184;2023-04-01T05:51:49;7.70;99.90
15900;DHT22;8048;50.644;6.184;2023-04-01T05:54:16;7.70;99.90
15900;DHT22;8048;50.644;6.184;2023-04-01T05:56:42;7.70;99.90
15900;DHT22;8048;50.644;6.184;2023-04-01T05:59:10;7.70;99.90
15900;DHT22;8048;50.644;6.184;2023-04-01T06:01:36;7.80;99.90
15900;DHT22;8048;50.644;6.184;2023-04-01T06:04:02;7.80;99.90
15900;DHT22;8048;50.644;6.184;2023-04-01T06:09:21;7.80;99.90
15900;DHT22;8048;50.644;6.184;2023-04-01T06:23:41;7.70;99.90
15900;DHT22;8048;50.644;6.184;2023-04-01T06:26:49;7.70;99.90
15900;DHT22;8048;50.644;6.184;2023-04-01T06:29:38;7.70;99.90
15900;DHT22;8048;50.644;6.184;2023-04-01T06:35:14;7.70;99.90
15900;DHT22;8048;50.644;6.184;2023-04-01T06:43:07;7.80;99.90
15900;DHT22;8048;50.644;6.184;2023-04-01T06:46:00;7.70;99.90
15900;DHT22;8048;50.644;6.184;2023-04-01T06:51:42;7.80;99.90
15900;DHT22;8048;50.644;6.184;2023-04-01T06:54:16;7.80;99.90
15900;DHT22;8048;50.644;6.184;2023-04-01T06:56:45;7.80;99.90
15900;DHT22;8048;50.644;6.184;2023-04-01T06:59:16;7.70;99.90
15900;DHT22;8048;50.644;6.184;2023-04-01T07:01:49;7.80;99.90
15900;DHT22;8048;50.644;6.184;2023-04-01T07:04:20;7.80;99.90
15900;DHT22;8048;50.644;6.184;2023-04-01T07:06:52;7.80;99.90
15900;DHT22;8048;50.644;6.184;2023-04-01T07:09:27;7.80;99.90
15900;DHT22;8048;50.644;6.184;2023-04-01T07:11:56;7.80;99.90
15900;DHT22;8048;50.644;6.184;2023-04-01T07:14:30;7.80;99.90
15900;DHT22;8048;50.644;6.184;2023-04-01T07:17:14;7.80;99.90
15900;DHT22;8048;50.644;6.184;2023-04-01T07:19:56;7.80;99.90
15900;DHT22;8048;50.644;6.184;2023-04-01T07:22:32;7.80;99.90
15900;DHT22;8048;50.644;6.184;2023-04-01T07:25:15;7.90;99.90
15900;DHT22;8048;50.644;6.184;2023-04-01T07:27:42;7.90;99.90
15900;DHT22;8048;50.644;6.184;2023-04-01T07:30:15;7.90;99.90
15900;DHT22;8048;50.644;6.184;2023-04-01T07:32:56;7.90;99.90
15900;DHT22;8048;50.644;6.184;2023-04-01T07:35:46;7.90;99.90
15900;DHT22;8048;50.644;6.184;2023-04-01T07:38:26;7.90;99.90
15900;DHT22;8048;50.644;6.184;2023-04-01T07:41:13;7.90;99.90
15900;DHT22;8048;50.644;6.184;2023-04-01T07:46:40;8.00;99.90
15900;DHT22;8048;50.644;6.184;2023-04-01T07:49:38;8.00;99.90
15900;DHT22;8048;50.644;6.184;2023-04-01T07:52:26;8.00;99.90
15900;DHT22;8048;50.644;6.184;2023-04-01T07:55:05;8.00;99.90
15900;DHT22;8048;50.644;6.184;2023-04-01T07:57:52;8.00;99.90
15900;DHT22;8048;50.644;6.184;2023-04-01T08:00:27;8.00;99.90
15900;DHT22;8048;50.644;6.184;2023-04-01T08:03:17;8.00;99.90
15900;DHT22;8048;50.644;6.184;2023-04-01T08:05:59;8.00;99.90
15900;DHT22;8048;50.644;6.184;2023-04-01T08:12:13;8.00;99.90
15900;DHT22;8048;50.644;6.184;2023-04-01T08:19:56;8.10;99.90
15900;DHT22;8048;50.644;6.184;2023-04-01T08:22:42;8.10;99.90
15900;DHT22;8048;50.644;6.184;2023-04-01T08:25:16;8.10;99.90
15900;DHT22;8048;50.644;6.184;2023-04-01T08:27:53;8.10;99.90
15900;DHT22;8048;50.644;6.184;2023-04-01T08:31:29;8.10;99.90
15900;DHT22;8048;50.644;6.184;2023-04-01T08:33:30;8.10;99.90
15900;DHT22;8048;50.644;6.184;2023-04-01T08:36:03;8.10;99.90
15900;DHT22;8048;50.644;6.184;2023-04-01T08:38:42;8.10;99.90
15900;DHT22;8048;50.644;6.184;2023-04-01T08:41:20;8.00;99.90
15900;DHT22;8048;50.644;6.184;2023-04-01T08:44:09;8.10;99.90
15900;DHT22;8048;50.644;6.184;2023-04-01T08:47:06;8.10;99.90
15900;DHT22;8048;50.644;6.184;2023-04-01T08:50:01;8.10;99.90
15900;DHT22;8048;50.644;6.184;2023-04-01T08:52:35;8.10;99.90
15900;DHT22;8048;50.644;6.184;2023-04-01T08:55:40;8.10;99.90
15900;DHT22;8048;50.644;6.184;2023-04-01T09:07:29;8.10;99.90
15900;DHT22;8048;50.644;6.184;2023-04-01T09:19:02;8.30;99.90
15900;DHT22;8048;50.644;6.184;2023-04-01T09:41:32;8.40;99.90
15900;DHT22;8048;50.644;6.184;2023-04-01T09:47:01;8.50;99.90
15900;DHT22;8048;50.644;6.184;2023-04-01T09:52:28;8.50;99.90
15900;DHT22;8048;50.644;6.184;2023-04-01T10:03:30;8.50;99.90
15900;DHT22;8048;50.644;6.184;2023-04-01T10:09:10;8.40;99.90
15900;DHT22;8048;50.644;6.184;2023-04-01T10:17:52;8.50;99.90
15900;DHT22;8048;50.644;6.184;2023-04-01T10:36:50;8.60;99.90
15900;DHT22;8048;50.644;6.184;2023-04-01T10:39:33;8.60;99.90
15900;DHT22;8048;50.644;6.184;2023-04-01T10:42:24;8.70;99.90
15900;DHT22;8048;50.644;6.184;2023-04-01T10:53:46;8.80;99.90
15900;DHT22;8048;50.644;6.184;2023-04-01T10:56:24;8.90;99.90
15900;DHT22;8048;50.644;6.184;2023-04-01T11:07:41;8.90;99.90
15900;DHT22;8048;50.644;6.184;2023-04-01T11:10:51;9.00;99.90
15900;DHT22;8048;50.644;6.184;2023-04-01T11:22:08;8.90;99.90
15900;DHT22;8048;50.644;6.184;2023-04-01T11:33:34;9.10;99.90
15900;DHT22;8048;50.644;6.184;2023-04-01T11:36:25;9.10;99.90
15900;DHT22;8048;50.644;6.184;2023-04-01T11:44:47;9.20;99.90
15900;DHT22;8048;50.644;6.184;2023-04-01T11:47:30;9.20;99.90
15900;DHT22;8048;50.644;6.184;2023-04-01T11:50:11;9.20;99.90
15900;DHT22;8048;50.644;6.184;2023-04-01T11:55:44;9.30;99.90
15900;DHT22;8048;50.644;6.184;2023-04-01T11:58:49;9.40;99.90
15900;DHT22;8048;50.644;6.184;2023-04-01T12:12:54;9.40;99.90
15900;DHT22;8048;50.644;6.184;2023-04-01T12:21:42;9.40;99.90
15900;DHT22;8048;50.644;6.184;2023-04-01T12:27:27;9.40;99.90
15900;DHT22;8048;50.644;6.184;2023-04-01T12:35:55;9.30;99.90
15900;DHT22;8048;50.644;6.184;2023-04-01T12:41:29;9.20;99.90
15900;DHT22;8048;50.644;6.184;2023-04-01T12:49:55;9.20;99.90
15900;DHT22;8048;50.644;6.184;2023-04-01T13:06:24;9.20;99.90
15900;DHT22;8048;50.644;6.184;2023-04-01T13:17:15;9.20;99.90
15900;DHT22;8048;50.644;6.184;2023-04-01T13:22:30;9.30;99.90
15900;DHT22;8048;50.644;6.184;2023-04-01T13:25:10;9.40;99.90
15900;DHT22;8048;50.644;6.184;2023-04-01T13:27:43;9.40;99.90
15900;DHT22;8048;50.644;6.184;2023-04-01T13:32:56;9.40;99.90
15900;DHT22;8048;50.644;6.184;2023-04-01T13:35:44;9.50;99.90
15900;DHT22;8048;50.644;6.184;2023-04-01T13:41:37;9.60;99.90
15900;DHT22;8048;50.644;6.184;2023-04-01T13:56:08;9.50;99.90
15900;DHT22;8048;50.644;6.184;2023-04-01T13:58:51;9.40;99.90
15900;DHT22;8048;50.644;6.184;2023-04-01T14:15:15;9.50;99.90
15900;DHT22;8048;50.644;6.184;2023-04-01T14:17:56;9.40;99.90
15900;DHT22;8048;50.644;6.184;2023-04-01T14:23:36;9.30;99.90
15900;DHT22;8048;50.644;6.184;2023-04-01T14:34:53;9.20;99.90
15900;DHT22;8048;50.644;6.184;2023-04-01T14:37:32;9.30;99.90
15900;DHT22;8048;50.644;6.184;2023-04-01T14:43:02;9.20;99.90
15900;DHT22;8048;50.644;6.184;2023-04-01T14:48:39;9.30;99.90
15900;DHT22;8048;50.644;6.184;2023-04-01T14:51:31;9.30;99.90
15900;DHT22;8048;50.644;6.184;2023-04-01T14:56:50;9.20;99.90
15900;DHT22;8048;50.644;6.184;2023-04-01T15:02:01;9.30;99.90
15900;DHT22;8048;50.644;6.184;2023-04-01T15:04:50;9.30;99.90
15900;DHT22;8048;50.644;6.184;2023-04-01T15:16:15;9.30;99.90
15900;DHT22;8048;50.644;6.184;2023-04-01T15:22:00;9.30;99.90
15900;DHT22;8048;50.644;6.184;2023-04-01T15:27:31;9.20;99.90
15900;DHT22;8048;50.644;6.184;2023-04-01T15:41:14;9.10;99.90
15900;DHT22;8048;50.644;6.184;2023-04-01T15:43:48;9.10;99.90
15900;DHT22;8048;50.644;6.184;2023-04-01T15:46:46;9.10;99.90
15900;DHT22;8048;50.644;6.184;2023-04-01T15:49:30;9.10;99.90
15900;DHT22;8048;50.644;6.184;2023-04-01T15:52:23;9.10;99.90
15900;DHT22;8048;50.644;6.184;2023-04-01T15:55:17;9.00;99.90
15900;DHT22;8048;50.644;6.184;2023-04-01T15:57:51;9.00;99.90
15900;DHT22;8048;50.644;6.184;2023-04-01T16:03:43;9.00;99.90
15900;DHT22;8048;50.644;6.184;2023-04-01T16:06:24;9.00;99.90
15900;DHT22;8048;50.644;6.184;2023-04-01T16:15:29;8.80;99.90
15900;DHT22;8048;50.644;6.184;2023-04-01T16:18:20;8.80;99.90
15900;DHT22;8048;50.644;6.184;2023-04-01T16:21:08;8.80;99.90
15900;DHT22;8048;50.644;6.184;2023-04-01T16:23:56;8.70;99.90
15900;DHT22;8048;50.644;6.184;2023-04-01T16:26:29;8.70;99.90
15900;DHT22;8048;50.644;6.184;2023-04-01T16:34:29;8.60;99.90
15900;DHT22;8048;50.644;6.184;2023-04-01T16:37:12;8.60;99.90
15900;DHT22;8048;50.644;6.184;2023-04-01T16:45:45;8.60;99.90
15900;DHT22;8048;50.644;6.184;2023-04-01T16:48:21;8.60;99.90
15900;DHT22;8048;50.644;6.184;2023-04-01T16:51:04;8.50;99.90
15900;DHT22;8048;50.644;6.184;2023-04-01T16:53:43;8.50;99.90
15900;DHT22;8048;50.644;6.184;2023-04-01T16:56:20;8.50;99.90
15900;DHT22;8048;50.644;6.184;2023-04-01T17:01:55;8.50;99.90
15900;DHT22;8048;50.644;6.184;2023-04-01T17:18:05;8.40;99.90
15900;DHT22;8048;50.644;6.184;2023-04-01T17:20:41;8.40;99.90
15900;DHT22;8048;50.644;6.184;2023-04-01T17:26:09;8.30;99.90
15900;DHT22;8048;50.644;6.184;2023-04-01T17:29:03;8.30;99.90
15900;DHT22;8048;50.644;6.184;2023-04-01T17:31:43;8.30;99.90
15900;DHT22;8048;50.644;6.184;2023-04-01T17:37:05;8.40;99.90
15900;DHT22;8048;50.644;6.184;2023-04-01T17:42:11;8.30;99.90
15900;DHT22;8048;50.644;6.184;2023-04-01T17:50:48;8.20;99.90
15900;DHT22;8048;50.644;6.184;2023-04-01T17:56:07;8.10;99.90
15900;DHT22;8048;50.644;6.184;2023-04-01T17:58:38;8.20;99.90
15900;DHT22;8048;50.644;6.184;2023-04-01T18:01:10;8.10;99.90
15900;DHT22;8048;50.644;6.184;2023-04-01T18:03:50;8.10;99.90
15900;DHT22;8048;50.644;6.184;2023-04-01T18:06:43;8.00;99.90
15900;DHT22;8048;50.644;6.184;2023-04-01T18:20:30;8.00;99.90
15900;DHT22;8048;50.644;6.184;2023-04-01T18:25:38;8.00;99.90
15900;DHT22;8048;50.644;6.184;2023-04-01T18:28:30;8.00;99.90
15900;DHT22;8048;50.644;6.184;2023-04-01T18:39:18;7.80;99.90
15900;DHT22;8048;50.644;6.184;2023-04-01T18:45:27;7.70;99.90
15900;DHT22;8048;50.644;6.184;2023-04-01T18:50:59;7.70;99.90
15900;DHT22;8048;50.644;6.184;2023-04-01T18:53:35;7.80;99.90
15900;DHT22;8048;50.644;6.184;2023-04-01T18:56:13;7.80;99.90
15900;DHT22;8048;50.644;6.184;2023-04-01T18:58:50;7.70;99.90
15900;DHT22;8048;50.644;6.184;2023-04-01T19:06:56;7.70;99.90
15900;DHT22;8048;50.644;6.184;2023-04-01T19:09:30;7.60;99.90
15900;DHT22;8048;50.644;6.184;2023-04-01T19:14:56;7.60;99.90
15900;DHT22;8048;50.644;6.184;2023-04-01T19:23:57;7.60;99.90
15900;DHT22;8048;50.644;6.184;2023-04-01T19:32:29;7.60;99.90
15900;DHT22;8048;50.644;6.184;2023-04-01T19:45:41;7.60;99.90
15900;DHT22;8048;50.644;6.184;2023-04-01T19:48:27;7.50;99.90
15900;DHT22;8048;50.644;6.184;2023-04-01T19:53:44;7.60;99.90
15900;DHT22;8048;50.644;6.184;2023-04-01T19:56:16;7.60;99.90
15900;DHT22;8048;50.644;6.184;2023-04-01T20:07:22;7.50;99.90
15900;DHT22;8048;50.644;6.184;2023-04-01T20:10:14;7.50;99.90
15900;DHT22;8048;50.644;6.184;2023-04-01T20:17:48;7.50;99.90
15900;DHT22;8048;50.644;6.184;2023-04-01T20:20:21;7.50;99.90
15900;DHT22;8048;50.644;6.184;2023-04-01T20:25:49;7.60;99.90
15900;DHT22;8048;50.644;6.184;2023-04-01T20:50:08;7.50;99.90
15900;DHT22;8048;50.644;6.184;2023-04-01T20:52:45;7.50;99.90
15900;DHT22;8048;50.644;6.184;2023-04-01T20:55:47;7.50;99.90
15900;DHT22;8048;50.644;6.184;2023-04-01T20:58:46;7.50;99.90
15900;DHT22;8048;50.644;6.184;2023-04-01T21:07:18;7.40;99.90
15900;DHT22;8048;50.644;6.184;2023-04-01T21:31:36;7.50;99.90
15900;DHT22;8048;50.644;6.184;2023-04-01T21:45:55;7.60;99.90
15900;DHT22;8048;50.644;6.184;2023-04-01T21:52:21;7.60;99.90
15900;DHT22;8048;50.644;6.184;2023-04-01T22:11:04;7.60;99.90
15900;DHT22;8048;50.644;6.184;2023-04-01T22:13:46;7.60;99.90
15900;DHT22;8048;50.644;6.184;2023-04-01T22:19:27;7.60;99.90
15900;DHT22;8048;50.644;6.184;2023-04-01T22:22:17;7.60;99.90
15900;DHT22;8048;50.644;6.184;2023-04-01T22:25:03;7.60;99.90
15900;DHT22;8048;50.644;6.184;2023-04-01T22:27:52;7.60;99.90
15900;DHT22;8048;50.644;6.184;2023-04-01T22:30:29;7.80;99.90
15900;DHT22;8048;50.644;6.184;2023-04-01T22:36:09;7.80;99.90
15900;DHT22;8048;50.644;6.184;2023-04-01T22:38:56;7.70;99.90
15900;DHT22;8048;50.644;6.184;2023-04-01T22:42:00;7.70;99.90
15900;DHT22;8048;50.644;6.184;2023-04-01T22:47:14;7.70;99.90
15900;DHT22;8048;50.644;6.184;2023-04-01T22:49:48;7.80;99.90
15900;DHT22;8048;50.644;6.184;2023-04-01T22:52:42;7.80;99.90
15900;DHT22;8048;50.644;6.184;2023-04-01T22:55:35;7.90;99.90
15900;DHT22;8048;50.644;6.184;2023-04-01T22:58:05;7.90;99.90
15900;DHT22;8048;50.644;6.184;2023-04-01T23:00:37;8.00;99.90
15900;DHT22;8048;50.644;6.184;2023-04-01T23:03:18;8.00;99.90
15900;DHT22;8048;50.644;6.184;2023-04-01T23:05:55;8.00;99.90
15900;DHT22;8048;50.644;6.184;2023-04-01T23:10:56;8.10;99.90
15900;DHT22;8048;50.644;6.184;2023-04-01T23:13:28;8.10;99.90
15900;DHT22;8048;50.644;6.184;2023-04-01T23:15:55;8.10;99.90
15900;DHT22;8048;50.644;6.184;2023-04-01T23:19:08;8.10;99.90
15900;DHT22;8048;50.644;6.184;2023-04-01T23:21:21;8.10;99.90
15900;DHT22;8048;50.644;6.184;2023-04-01T23:24:15;8.10;99.90
15900;DHT22;8048;50.644;6.184;2023-04-01T23:27:08;8.10;99.90
15900;DHT22;8048;50.644;6.184;2023-04-01T23:29:37;8.10;99.90
15900;DHT22;8048;50.644;6.184;2023-04-01T23:32:16;8.10;99.90
15900;DHT22;8048;50.644;6.184;2023-04-01T23:34:48;8.20;99.90
15900;DHT22;8048;50.644;6.184;2023-04-01T23:37:16;8.10;99.90
15900;DHT22;8048;50.644;6.184;2023-04-01T23:39:46;8.20;99.90
15900;DHT22;8048;50.644;6.184;2023-04-01T23:42:33;8.20;99.90
15900;DHT22;8048;50.644;6.184;2023-04-01T23:45:15;8.20;99.90
15900;DHT22;8048;50.644;6.184;2023-04-01T23:47:47;8.20;99.90
15900;DHT22;8048;50.644;6.184;2023-04-01T23:50:20;8.20;99.90
15900;DHT22;8048;50.644;6.184;2023-04-01T23:52:52;8.20;99.90
15900;DHT22;8048;50.644;6.184;2023-04-01T23:55:31;8.10;99.90
